createdAt,value
2023-05-10T00:00:05.723Z,62.90
2023-05-10T00:02:40.694Z,63.00
2023-05-10T00:05:08.465Z,63.00
2023-05-10T00:07:35.329Z,62.90
2023-05-10T00:10:02.119Z,63.00
2023-05-10T00:12:29.011Z,62.90
2023-05-10T00:14:55.922Z,62.80
2023-05-10T00:17:22.723Z,62.90
2023-05-10T00:19:49.640Z,62.90
2023-05-10T00:22:16.465Z,62.90
2023-05-10T00:24:43.303Z,62.90
2023-05-10T00:27:10.251Z,62.90
2023-05-10T00:29:37.059Z,63.00
2023-05-10T00:32:04.088Z,63.00
2023-05-10T00:34:31.484Z,63.00
2023-05-10T00:36:58.323Z,63.00
2023-05-10T00:39:25.303Z,63.00
2023-05-10T00:41:52.149Z,63.00
2023-05-10T00:44:19.571Z,63.00
2023-05-10T00:46:46.873Z,63.10
2023-05-10T00:49:14.215Z,63.00
2023-05-10T00:51:43.784Z,63.00
2023-05-10T00:54:13.341Z,63.90
2023-05-10T00:56:41.378Z,63.10
2023-05-10T00:59:09.846Z,63.00
2023-05-10T01:01:37.407Z,63.00
2023-05-10T01:04:04.788Z,63.00
2023-05-10T01:06:31.681Z,63.10
2023-05-10T01:08:58.682Z,63.00
2023-05-10T01:11:25.580Z,63.10
2023-05-10T01:13:57.619Z,63.10
2023-05-10T01:16:26.366Z,63.00
2023-05-10T01:18:53.792Z,63.10
2023-05-10T01:21:25.006Z,63.10
2023-05-10T01:24:20.410Z,63.10
2023-05-10T01:26:50.042Z,63.10
2023-05-10T01:30:14.622Z,63.50
2023-05-10T01:33:24.034Z,63.10
2023-05-10T01:36:04.397Z,63.20
2023-05-10T01:38:52.689Z,63.30
2023-05-10T01:41:28.174Z,63.30
2023-05-10T01:44:12.614Z,63.40
2023-05-10T01:46:41.234Z,63.30
2023-05-10T01:49:21.706Z,63.40
2023-05-10T01:51:52.704Z,63.30
2023-05-10T01:54:22.514Z,63.40
2023-05-10T01:56:56.007Z,63.40
2023-05-10T01:59:25.988Z,63.40
2023-05-10T02:01:54.318Z,63.40
2023-05-10T02:04:24.587Z,63.40
2023-05-10T02:06:53.913Z,63.30
2023-05-10T02:09:22.280Z,63.30
2023-05-10T02:11:51.565Z,63.40
2023-05-10T02:14:20.464Z,63.30
2023-05-10T02:16:48.285Z,63.30
2023-05-10T02:19:16.475Z,63.30
2023-05-10T02:21:45.094Z,63.40
2023-05-10T02:24:12.456Z,63.30
2023-05-10T02:26:39.572Z,63.30
2023-05-10T02:29:07.845Z,63.30
2023-05-10T02:31:36.236Z,63.30
2023-05-10T02:34:05.227Z,63.30
2023-05-10T02:36:32.918Z,63.30
2023-05-10T02:39:00.887Z,63.30
2023-05-10T02:41:28.764Z,63.30
2023-05-10T02:44:00.296Z,63.30
2023-05-10T02:46:27.222Z,63.30
2023-05-10T02:48:54.153Z,63.30
2023-05-10T02:51:24.925Z,63.30
2023-05-10T02:53:54.400Z,63.30
2023-05-10T02:56:34.097Z,63.30
2023-05-10T02:59:01.127Z,63.20
2023-05-10T03:01:28.041Z,63.30
2023-05-10T03:03:55.068Z,63.30
2023-05-10T03:06:22.035Z,63.30
2023-05-10T03:08:48.968Z,63.20
2023-05-10T03:11:33.119Z,63.20
2023-05-10T03:14:31.181Z,63.20
2023-05-10T03:17:07.447Z,63.20
2023-05-10T03:19:46.650Z,63.20
2023-05-10T03:22:17.843Z,63.20
2023-05-10T03:24:46.254Z,64.10
2023-05-10T03:27:15.304Z,63.10
2023-05-10T03:29:44.188Z,63.10
2023-05-10T03:32:11.258Z,63.10
2023-05-10T03:34:43.439Z,63.10
2023-05-10T03:37:11.070Z,63.10
2023-05-10T03:39:38.089Z,63.00
2023-05-10T03:42:07.778Z,63.00
2023-05-10T03:44:34.607Z,63.00
2023-05-10T03:47:01.661Z,63.00
2023-05-10T03:49:28.698Z,62.90
2023-05-10T03:51:55.761Z,62.90
2023-05-10T03:54:22.735Z,63.00
2023-05-10T03:56:49.584Z,62.90
2023-05-10T03:59:18.060Z,62.90
2023-05-10T04:01:44.911Z,62.80
2023-05-10T04:04:11.931Z,62.80
2023-05-10T04:06:39.282Z,62.80
2023-05-10T04:09:06.375Z,62.80
2023-05-10T04:11:33.276Z,62.80
2023-05-10T04:14:00.118Z,62.80
2023-05-10T04:16:27.007Z,62.80
2023-05-10T04:18:53.877Z,62.80
2023-05-10T04:21:20.751Z,62.80
2023-05-10T04:23:47.635Z,62.80
2023-05-10T04:26:14.725Z,62.80
2023-05-10T04:28:41.611Z,62.70
2023-05-10T04:31:10.127Z,62.80
2023-05-10T04:33:37.219Z,62.80
2023-05-10T04:36:04.639Z,62.70
2023-05-10T04:38:31.533Z,62.70
2023-05-10T04:41:11.739Z,62.70
2023-05-10T04:43:39.096Z,62.70
2023-05-10T04:46:06.912Z,62.60
2023-05-10T04:48:34.024Z,62.70
2023-05-10T04:51:00.909Z,62.60
2023-05-10T04:53:27.815Z,62.70
2023-05-10T04:55:54.719Z,62.70
2023-05-10T04:58:21.872Z,62.70
2023-05-10T05:00:48.733Z,62.70
2023-05-10T05:03:15.916Z,62.70
2023-05-10T05:05:42.916Z,62.70
2023-05-10T05:08:09.950Z,62.70
2023-05-10T05:10:36.856Z,62.70
2023-05-10T05:13:03.796Z,62.70
2023-05-10T05:15:31.657Z,62.70
2023-05-10T05:17:58.847Z,62.70
2023-05-10T05:20:25.832Z,62.70
2023-05-10T05:22:52.680Z,62.70
2023-05-10T05:25:19.515Z,62.70
2023-05-10T05:27:46.542Z,62.60
2023-05-10T05:30:13.601Z,62.70
2023-05-10T05:32:40.729Z,62.70
2023-05-10T05:35:08.016Z,62.70
2023-05-10T05:37:34.900Z,62.70
2023-05-10T05:40:02.714Z,62.80
2023-05-10T05:42:29.623Z,62.80
2023-05-10T05:44:56.482Z,62.80
2023-05-10T05:47:23.356Z,62.80
2023-05-10T05:49:50.176Z,62.90
2023-05-10T05:52:17.080Z,63.00
2023-05-10T05:54:44.275Z,62.90
2023-05-10T05:57:11.161Z,63.00
2023-05-10T05:59:42.750Z,63.10
2023-05-10T06:02:10.251Z,63.00
2023-05-10T06:04:37.300Z,63.10
2023-05-10T06:07:04.194Z,63.10
2023-05-10T06:09:31.021Z,63.10
2023-05-10T06:11:58.211Z,63.20
2023-05-10T06:14:25.049Z,63.20
2023-05-10T06:16:51.937Z,63.30
2023-05-10T06:19:18.941Z,63.40
2023-05-10T06:21:45.884Z,63.30
2023-05-10T06:24:12.791Z,64.30
2023-05-10T06:26:39.619Z,63.40
2023-05-10T06:29:06.922Z,63.40
2023-05-10T06:31:33.882Z,63.40
2023-05-10T06:34:00.762Z,63.30
2023-05-10T06:36:28.188Z,63.40
2023-05-10T06:38:55.084Z,63.40
2023-05-10T06:41:24.636Z,63.40
2023-05-10T06:43:51.765Z,63.40
2023-05-10T06:46:18.766Z,63.40
2023-05-10T06:48:45.799Z,63.40
2023-05-10T06:51:12.634Z,63.40
2023-05-10T06:53:39.515Z,63.30
2023-05-10T06:56:06.498Z,63.30
2023-05-10T06:58:33.761Z,63.30
2023-05-10T07:01:05.154Z,63.20
2023-05-10T07:03:32.857Z,63.20
2023-05-10T07:06:11.377Z,63.20
2023-05-10T07:08:42.746Z,63.10
2023-05-10T07:11:09.760Z,63.00
2023-05-10T07:13:37.396Z,63.00
2023-05-10T07:16:05.177Z,62.90
2023-05-10T07:18:32.051Z,62.90
2023-05-10T07:20:59.038Z,62.90
2023-05-10T07:23:26.044Z,62.90
2023-05-10T07:25:53.233Z,62.80
2023-05-10T07:28:20.936Z,62.80
2023-05-10T07:30:47.967Z,63.70
2023-05-10T07:33:15.829Z,62.80
2023-05-10T07:35:43.640Z,62.70
2023-05-10T07:38:12.024Z,62.60
2023-05-10T07:40:39.666Z,62.60
2023-05-10T07:43:06.949Z,62.50
2023-05-10T07:45:34.546Z,62.50
2023-05-10T07:48:01.527Z,62.50
2023-05-10T07:50:28.519Z,62.50
2023-05-10T07:52:55.491Z,62.40
2023-05-10T07:55:22.571Z,62.40
2023-05-10T07:57:49.418Z,62.40
2023-05-10T08:00:21.210Z,62.30
2023-05-10T08:02:48.684Z,62.30
2023-05-10T08:05:16.330Z,62.20
2023-05-10T08:07:43.416Z,62.20
2023-05-10T08:10:12.116Z,62.20
2023-05-10T08:12:39.745Z,62.10
2023-05-10T08:15:08.056Z,62.10
2023-05-10T08:17:35.149Z,62.00
2023-05-10T08:20:02.458Z,62.10
2023-05-10T08:22:29.607Z,62.10
2023-05-10T08:24:56.612Z,62.10
2023-05-10T08:27:23.515Z,62.00
2023-05-10T08:29:50.799Z,61.90
2023-05-10T08:32:18.357Z,61.90
2023-05-10T08:34:45.314Z,61.70
2023-05-10T08:37:14.233Z,61.60
2023-05-10T08:39:41.499Z,61.50
2023-05-10T08:42:10.180Z,61.30
2023-05-10T08:44:37.873Z,61.20
2023-05-10T08:47:10.020Z,61.10
2023-05-10T08:49:38.622Z,61.00
2023-05-10T08:52:08.346Z,61.00
2023-05-10T08:54:35.587Z,60.90
2023-05-10T08:57:02.950Z,60.90
2023-05-10T08:59:29.960Z,60.90
2023-05-10T09:02:00.779Z,60.90
2023-05-10T09:04:28.470Z,60.90
2023-05-10T09:06:55.666Z,60.80
2023-05-10T09:09:23.091Z,60.70
2023-05-10T09:11:50.092Z,60.60
2023-05-10T09:14:18.206Z,60.60
2023-05-10T09:16:45.462Z,60.60
2023-05-10T09:19:12.494Z,60.50
2023-05-10T09:21:39.593Z,60.50
2023-05-10T09:24:08.227Z,60.50
2023-05-10T09:26:36.614Z,60.40
2023-05-10T09:29:04.172Z,60.40
2023-05-10T09:31:48.911Z,60.50
2023-05-10T09:34:20.477Z,60.40
2023-05-10T09:36:58.381Z,60.40
2023-05-10T09:39:55.218Z,60.40
2023-05-10T09:42:22.017Z,60.20
2023-05-10T09:44:49.005Z,60.20
2023-05-10T09:47:20.069Z,60.10
2023-05-10T09:49:57.001Z,60.10
2023-05-10T09:52:23.825Z,60.00
2023-05-10T09:54:55.256Z,59.90
2023-05-10T09:57:24.085Z,59.70
2023-05-10T09:59:51.688Z,59.80
2023-05-10T10:02:18.662Z,59.80
2023-05-10T10:04:45.649Z,59.70
2023-05-10T10:07:12.823Z,59.50
2023-05-10T10:09:39.999Z,59.50
2023-05-10T10:12:07.118Z,59.40
2023-05-10T10:14:35.186Z,59.30
2023-05-10T10:19:34.605Z,59.20
2023-05-10T10:22:01.741Z,60.10
2023-05-10T10:24:28.523Z,59.10
2023-05-10T10:27:05.348Z,59.10
2023-05-10T10:30:04.764Z,59.00
2023-05-10T10:32:37.499Z,59.00
2023-05-10T10:35:05.094Z,59.10
2023-05-10T10:37:46.347Z,59.20
2023-05-10T10:40:29.612Z,59.20
2023-05-10T10:42:58.102Z,59.20
2023-05-10T10:45:26.368Z,59.30
2023-05-10T10:48:22.217Z,59.30
2023-05-10T10:50:49.049Z,59.30
2023-05-10T10:53:16.038Z,59.40
2023-05-10T10:55:49.428Z,59.40
2023-05-10T10:58:33.150Z,59.30
2023-05-10T11:01:18.983Z,59.20
2023-05-10T11:04:04.253Z,59.20
2023-05-10T11:06:33.469Z,59.20
2023-05-10T11:09:06.388Z,59.30
2023-05-10T11:11:33.246Z,59.20
2023-05-10T11:14:08.055Z,59.30
2023-05-10T11:16:45.307Z,59.20
2023-05-10T11:19:14.090Z,59.10
2023-05-10T11:22:11.896Z,59.10
2023-05-10T11:24:38.766Z,59.00
2023-05-10T11:27:06.473Z,59.00
2023-05-10T11:29:33.344Z,59.00
2023-05-10T11:32:01.024Z,59.00
2023-05-10T11:34:34.795Z,59.10
2023-05-10T11:37:01.906Z,59.30
2023-05-10T11:39:30.604Z,59.40
2023-05-10T11:41:58.540Z,59.50
2023-05-10T11:44:33.827Z,59.50
2023-05-10T11:47:01.760Z,59.60
2023-05-10T11:49:28.848Z,59.60
2023-05-10T11:52:08.470Z,59.70
2023-05-10T11:54:36.067Z,59.60
2023-05-10T11:57:03.289Z,59.70
2023-05-10T11:59:30.625Z,59.60
2023-05-10T12:01:57.856Z,59.50
2023-05-10T12:04:24.987Z,59.40
2023-05-10T12:06:51.856Z,59.40
2023-05-10T12:09:23.019Z,59.30
2023-05-10T12:11:58.631Z,59.20
2023-05-10T12:14:25.417Z,59.00
2023-05-10T12:16:52.487Z,59.00
2023-05-10T12:19:22.339Z,58.90
2023-05-10T12:21:49.282Z,58.90
2023-05-10T12:24:18.916Z,59.10
2023-05-10T12:26:49.386Z,59.10
2023-05-10T12:29:18.158Z,59.20
2023-05-10T12:31:55.362Z,59.30
2023-05-10T12:34:37.177Z,59.40
2023-05-10T12:37:04.593Z,59.60
2023-05-10T12:39:45.165Z,59.60
2023-05-10T12:42:12.454Z,59.60
2023-05-10T12:44:40.105Z,60.50
2023-05-10T12:47:07.108Z,59.50
2023-05-10T12:49:34.871Z,59.40
2023-05-10T12:52:01.820Z,59.20
2023-05-10T12:54:28.869Z,58.90
2023-05-10T12:56:55.921Z,58.80
2023-05-10T12:59:23.784Z,58.60
2023-05-10T13:01:50.727Z,58.50
2023-05-10T13:04:17.578Z,58.50
2023-05-10T13:06:44.471Z,58.60
2023-05-10T13:09:11.355Z,58.70
2023-05-10T13:11:38.198Z,58.70
2023-05-10T13:14:05.001Z,58.70
2023-05-10T13:16:32.496Z,58.70
2023-05-10T13:18:59.475Z,58.50
2023-05-10T13:21:26.771Z,58.40
2023-05-10T13:23:54.150Z,58.40
2023-05-10T13:26:21.205Z,59.30
2023-05-10T13:28:48.078Z,58.30
2023-05-10T13:31:15.042Z,59.50
2023-05-10T13:33:41.863Z,58.70
2023-05-10T13:36:08.852Z,58.80
2023-05-10T13:38:35.815Z,58.90
2023-05-10T13:41:02.605Z,59.20
2023-05-10T13:43:30.386Z,59.40
2023-05-10T13:45:57.353Z,59.50
2023-05-10T13:48:24.159Z,59.60
2023-05-10T13:50:51.151Z,59.60
2023-05-10T13:53:17.935Z,59.60
2023-05-10T13:55:44.796Z,59.60
2023-05-10T13:58:11.641Z,59.60
2023-05-10T14:00:38.427Z,59.50
2023-05-10T14:03:06.317Z,59.60
2023-05-10T14:05:33.305Z,59.60
2023-05-10T14:08:00.274Z,59.70
2023-05-10T14:10:27.374Z,59.80
2023-05-10T14:12:54.295Z,59.80
2023-05-10T14:15:21.543Z,59.70
2023-05-10T14:17:48.753Z,59.80
2023-05-10T14:20:15.994Z,59.80
2023-05-10T14:22:42.799Z,59.90
2023-05-10T14:25:10.091Z,60.00
2023-05-10T14:27:37.515Z,60.50
2023-05-10T14:30:04.683Z,60.00
2023-05-10T14:32:33.027Z,60.20
2023-05-10T14:35:00.522Z,60.30
2023-05-10T14:37:27.749Z,60.30
2023-05-10T14:39:55.010Z,60.40
2023-05-10T14:42:22.281Z,60.40
2023-05-10T14:44:49.236Z,60.50
2023-05-10T14:47:16.191Z,60.40
2023-05-10T14:49:43.041Z,60.40
2023-05-10T14:52:09.924Z,60.50
2023-05-10T14:54:36.776Z,60.60
2023-05-10T14:57:03.660Z,60.60
2023-05-10T14:59:30.564Z,60.60
2023-05-10T15:01:57.696Z,60.60
2023-05-10T15:04:25.999Z,60.60
2023-05-10T15:06:59.976Z,60.60
2023-05-10T15:09:28.438Z,60.60
2023-05-10T15:11:55.916Z,60.70
2023-05-10T15:14:23.724Z,60.70
2023-05-10T15:16:50.518Z,60.80
2023-05-10T15:19:17.311Z,60.70
2023-05-10T15:21:45.506Z,60.80
2023-05-10T15:24:12.401Z,60.90
2023-05-10T15:26:39.228Z,60.90
2023-05-10T15:29:06.042Z,60.90
2023-05-10T15:31:35.802Z,60.90
2023-05-10T15:34:02.868Z,60.90
2023-05-10T15:36:29.701Z,60.80
2023-05-10T15:38:56.903Z,60.90
2023-05-10T15:41:24.482Z,60.90
2023-05-10T15:43:51.389Z,60.90
2023-05-10T15:46:18.216Z,60.80
2023-05-10T15:48:45.055Z,60.70
2023-05-10T15:51:12.468Z,60.60
2023-05-10T15:53:46.666Z,60.60
2023-05-10T15:56:19.937Z,60.60
2023-05-10T15:58:46.840Z,60.50
2023-05-10T16:01:13.775Z,60.60
2023-05-10T16:03:40.794Z,60.60
2023-05-10T16:06:08.028Z,60.60
2023-05-10T16:08:35.434Z,60.60
2023-05-10T16:11:02.621Z,60.70
2023-05-10T16:13:29.953Z,60.80
2023-05-10T16:15:58.161Z,60.90
2023-05-10T16:18:25.312Z,60.90
2023-05-10T16:20:53.991Z,60.90
2023-05-10T16:23:20.995Z,60.90
2023-05-10T16:25:47.821Z,60.90
2023-05-10T16:28:14.631Z,61.00
2023-05-10T16:30:41.597Z,61.00
2023-05-10T16:33:08.698Z,61.10
2023-05-10T16:35:35.523Z,61.10
2023-05-10T16:38:02.337Z,61.10
2023-05-10T16:40:29.817Z,61.10
2023-05-10T16:42:57.156Z,61.20
2023-05-10T16:45:24.443Z,61.10
2023-05-10T16:47:53.617Z,61.20
2023-05-10T16:50:20.620Z,61.20
2023-05-10T16:52:47.666Z,61.40
2023-05-10T16:55:14.601Z,61.50
2023-05-10T16:57:41.558Z,61.50
2023-05-10T17:00:08.822Z,61.50
2023-05-10T17:02:35.781Z,61.60
2023-05-10T17:05:02.845Z,61.50
2023-05-10T17:07:29.719Z,61.50
2023-05-10T17:09:56.754Z,61.50
2023-05-10T17:12:23.562Z,61.60
2023-05-10T17:14:50.457Z,61.60
2023-05-10T17:17:17.677Z,61.60
2023-05-10T17:19:47.748Z,61.60
2023-05-10T17:22:14.592Z,61.70
2023-05-10T17:24:41.698Z,61.80
2023-05-10T17:27:08.687Z,61.80
2023-05-10T17:29:35.504Z,61.80
2023-05-10T17:32:02.439Z,61.80
2023-05-10T17:34:29.399Z,61.80
2023-05-10T17:36:56.264Z,62.00
2023-05-10T17:39:23.183Z,62.00
2023-05-10T17:41:49.940Z,62.10
2023-05-10T17:44:16.838Z,62.20
2023-05-10T17:46:43.689Z,62.30
2023-05-10T17:49:10.694Z,62.40
2023-05-10T17:51:37.612Z,62.40
2023-05-10T17:54:04.484Z,62.40
2023-05-10T17:56:31.475Z,62.40
2023-05-10T17:58:58.334Z,62.60
2023-05-10T18:01:25.486Z,62.60
2023-05-10T18:03:52.851Z,62.40
2023-05-10T18:06:19.905Z,62.60
2023-05-10T18:08:46.776Z,62.50
2023-05-10T18:11:13.727Z,62.40
2023-05-10T18:13:40.656Z,62.40
2023-05-10T18:16:08.845Z,62.50
2023-05-10T18:18:35.793Z,62.50
2023-05-10T18:21:03.737Z,62.40
2023-05-10T18:23:30.620Z,62.40
2023-05-10T18:25:58.075Z,62.60
2023-05-10T18:28:24.892Z,62.60
2023-05-10T18:30:51.974Z,62.60
2023-05-10T18:33:19.048Z,62.60
2023-05-10T18:35:46.481Z,62.70
2023-05-10T18:38:13.793Z,63.20
2023-05-10T18:40:41.637Z,62.80
2023-05-10T18:43:08.997Z,62.80
2023-05-10T18:45:35.843Z,62.80
2023-05-10T18:48:03.037Z,62.80
2023-05-10T18:50:29.891Z,62.80
2023-05-10T18:52:56.880Z,62.80
2023-05-10T18:55:26.869Z,62.80
2023-05-10T18:57:53.806Z,62.90
2023-05-10T19:00:20.727Z,62.90
2023-05-10T19:02:47.805Z,62.80
2023-05-10T19:05:15.698Z,62.80
2023-05-10T19:07:43.927Z,62.80
2023-05-10T19:10:13.924Z,62.80
2023-05-10T19:12:43.510Z,62.80
2023-05-10T19:15:11.685Z,62.80
2023-05-10T19:17:41.974Z,62.90
2023-05-10T19:20:11.418Z,63.20
2023-05-10T19:22:54.311Z,63.30
2023-05-10T19:25:29.564Z,63.40
2023-05-10T19:27:59.779Z,63.40
2023-05-10T19:30:26.933Z,63.90
2023-05-10T19:32:53.917Z,63.50
2023-05-10T19:35:20.761Z,63.60
2023-05-10T19:37:47.652Z,63.60
2023-05-10T19:40:18.610Z,63.50
2023-05-10T19:42:45.593Z,63.60
2023-05-10T19:45:12.518Z,63.60
2023-05-10T19:47:39.446Z,63.60
2023-05-10T19:50:07.367Z,63.60
2023-05-10T19:52:34.402Z,63.60
2023-05-10T19:55:01.272Z,63.60
2023-05-10T19:57:28.133Z,63.60
2023-05-10T19:59:54.947Z,63.60
2023-05-10T20:02:21.731Z,63.60
2023-05-10T20:04:48.650Z,63.60
2023-05-10T20:07:15.547Z,63.50
2023-05-10T20:09:43.797Z,63.50
2023-05-10T20:12:10.953Z,63.60
2023-05-10T20:14:37.900Z,63.60
2023-05-10T20:17:05.121Z,63.60
2023-05-10T20:19:32.262Z,63.60
2023-05-10T20:21:59.112Z,63.60
2023-05-10T20:24:25.911Z,63.50
2023-05-10T20:26:52.731Z,63.40
2023-05-10T20:29:19.571Z,63.30
2023-05-10T20:31:46.513Z,63.20
2023-05-10T20:34:13.540Z,63.20
2023-05-10T20:36:40.390Z,63.00
2023-05-10T20:39:07.319Z,63.10
2023-05-10T20:41:37.181Z,63.10
2023-05-10T20:44:05.547Z,63.00
2023-05-10T20:46:33.563Z,63.00
2023-05-10T20:49:00.516Z,63.00
2023-05-10T20:51:29.934Z,63.10
2023-05-10T20:53:57.779Z,63.10
2023-05-10T20:56:24.568Z,63.00
2023-05-10T20:58:51.595Z,63.00
2023-05-10T21:01:18.589Z,62.90
2023-05-10T21:03:45.432Z,63.00
2023-05-10T21:06:12.208Z,62.90
2023-05-10T21:08:39.199Z,62.90
2023-05-10T21:11:05.996Z,62.90
2023-05-10T21:13:33.220Z,62.90
2023-05-10T21:16:00.450Z,62.90
2023-05-10T21:18:27.570Z,62.80
2023-05-10T21:20:54.503Z,62.90
2023-05-10T21:23:21.560Z,62.80
2023-05-10T21:25:48.393Z,62.90
2023-05-10T21:28:15.639Z,62.90
2023-05-10T21:30:42.520Z,62.90
2023-05-10T21:33:09.392Z,62.90
2023-05-10T21:35:39.306Z,62.90
2023-05-10T21:38:06.335Z,62.90
2023-05-10T21:40:33.186Z,62.90
2023-05-10T21:43:00.037Z,63.00
2023-05-10T21:45:29.184Z,63.00
2023-05-10T21:47:56.396Z,63.00
2023-05-10T21:50:23.194Z,63.00
2023-05-10T21:52:50.053Z,63.00
2023-05-10T21:55:17.033Z,63.00
2023-05-10T21:57:44.776Z,63.00
2023-05-10T22:00:12.523Z,63.00
2023-05-10T22:02:40.103Z,63.00
2023-05-10T22:05:07.071Z,63.00
2023-05-10T22:07:34.279Z,62.90
2023-05-10T22:10:01.178Z,62.80
2023-05-10T22:12:28.032Z,62.80
2023-05-10T22:15:09.359Z,62.80
2023-05-10T22:17:39.761Z,62.80
2023-05-10T22:20:08.442Z,62.80
2023-05-10T22:22:36.523Z,62.80
2023-05-10T22:25:04.075Z,62.80
2023-05-10T22:27:30.863Z,62.80
2023-05-10T22:29:57.801Z,62.80
2023-05-10T22:32:24.820Z,62.90
2023-05-10T22:34:52.406Z,63.00
2023-05-10T22:37:19.306Z,63.00
2023-05-10T22:39:46.796Z,63.00
2023-05-10T22:42:13.634Z,63.10
2023-05-10T22:44:42.008Z,63.10
2023-05-10T22:47:09.085Z,63.10
2023-05-10T22:49:36.108Z,63.10
2023-05-10T22:52:02.968Z,63.10
2023-05-10T22:54:29.807Z,63.20
2023-05-10T22:56:56.901Z,63.20
2023-05-10T22:59:23.886Z,63.20
2023-05-10T23:01:51.133Z,63.20
2023-05-10T23:04:18.187Z,63.20
2023-05-10T23:06:45.921Z,63.20
2023-05-10T23:09:12.808Z,63.20
2023-05-10T23:11:39.612Z,63.20
2023-05-10T23:14:06.680Z,63.20
2023-05-10T23:16:33.582Z,63.20
2023-05-10T23:19:00.505Z,63.20
2023-05-10T23:21:28.770Z,63.20
2023-05-10T23:23:57.037Z,63.20
2023-05-10T23:26:23.870Z,63.20
2023-05-10T23:28:50.869Z,63.20
2023-05-10T23:31:17.701Z,63.10
2023-05-10T23:33:44.460Z,63.10
2023-05-10T23:36:11.276Z,63.10
2023-05-10T23:38:38.482Z,63.10
2023-05-10T23:41:05.557Z,63.10
2023-05-10T23:43:32.366Z,63.10
2023-05-10T23:45:59.553Z,63.10
2023-05-10T23:48:26.707Z,63.10
2023-05-10T23:50:53.558Z,63.10
2023-05-10T23:53:20.550Z,63.10
2023-05-10T23:55:47.487Z,63.10
2023-05-10T23:58:14.352Z,63.10
